createdAt,value
2022-12-09T00:02:26.631Z,72.35
2022-12-09T00:07:27.332Z,74.82
2022-12-09T00:09:57.901Z,74.60
2022-12-09T00:12:28.566Z,74.95
2022-12-09T00:17:28.931Z,67.43
2022-12-09T00:19:59.803Z,58.67
2022-12-09T00:22:31.897Z,72.85
2022-12-09T00:25:03.060Z,69.10
2022-12-09T00:27:33.459Z,68.22
2022-12-09T00:30:04.387Z,60.55
2022-12-09T00:32:35.600Z,70.10
2022-12-09T00:35:06.982Z,55.42
2022-12-09T00:37:37.688Z,67.38
2022-12-09T00:40:08.764Z,64.97
2022-12-09T00:42:38.843Z,65.95
2022-12-09T00:45:09.910Z,61.25
2022-12-09T00:47:40.143Z,68.05
2022-12-09T00:50:10.821Z,71.32
2022-12-09T00:55:10.652Z,72.57
2022-12-09T00:57:42.094Z,65.50
2022-12-09T01:00:12.693Z,69.78
2022-12-09T01:02:43.523Z,70.60
2022-12-09T01:05:13.748Z,68.18
2022-12-09T01:07:44.167Z,75.85
2022-12-09T01:10:14.252Z,74.60
2022-12-09T01:12:45.043Z,80.40
2022-12-09T01:15:15.427Z,92.53
2022-12-09T01:17:45.611Z,112.75
2022-12-09T01:20:15.793Z,127.63
2022-12-09T01:22:46.009Z,154.57
2022-12-09T01:25:16.643Z,128.38
2022-12-09T01:27:46.900Z,112.57
2022-12-09T01:30:17.203Z,112.47
2022-12-09T01:32:50.973Z,117.80
2022-12-09T01:35:21.365Z,123.35
2022-12-09T01:37:51.300Z,103.60
2022-12-09T01:40:21.970Z,95.80
2022-12-09T01:42:53.432Z,101.93
2022-12-09T01:45:43.530Z,103.85
2022-12-09T01:48:22.350Z,100.18
2022-12-09T01:51:00.646Z,113.97
2022-12-09T01:53:37.032Z,97.55
2022-12-09T01:56:13.911Z,108.05
2022-12-09T01:58:44.854Z,96.75
2022-12-09T02:01:14.971Z,98.70
2022-12-09T02:03:45.642Z,109.70
2022-12-09T02:06:18.563Z,87.63
2022-12-09T02:08:50.944Z,92.70
2022-12-09T02:11:48.094Z,141.70
2022-12-09T02:14:30.167Z,110.38
2022-12-09T02:17:27.933Z,137.13
2022-12-09T02:20:12.224Z,99.35
2022-12-09T02:23:02.979Z,102.47
2022-12-09T02:25:57.542Z,106.45
2022-12-09T02:28:56.997Z,113.55
2022-12-09T02:31:46.884Z,149.55
2022-12-09T02:34:22.232Z,137.18
2022-12-09T02:37:18.983Z,115.43
2022-12-09T02:40:02.960Z,123.07
2022-12-09T02:42:38.988Z,118.93
2022-12-09T02:45:12.967Z,125.93
2022-12-09T02:47:51.963Z,120.45
2022-12-09T02:50:31.643Z,125.97
2022-12-09T02:53:06.597Z,109.60
2022-12-09T02:55:42.785Z,115.10
2022-12-09T02:58:13.123Z,119.25
2022-12-09T03:00:46.031Z,112.18
2022-12-09T03:03:19.378Z,119.68
2022-12-09T03:06:17.910Z,117.80
2022-12-09T03:08:59.302Z,136.43
2022-12-09T03:11:31.103Z,138.75
2022-12-09T03:14:17.676Z,129.60
2022-12-09T03:17:26.838Z,131.88
2022-12-09T03:20:03.120Z,132.38
2022-12-09T03:22:37.502Z,144.25
2022-12-09T03:25:30.483Z,135.65
2022-12-09T03:28:07.445Z,133.13
2022-12-09T03:30:41.330Z,141.35
2022-12-09T03:33:12.857Z,136.05
2022-12-09T03:35:48.617Z,150.20
2022-12-09T03:38:22.834Z,141.27
2022-12-09T03:41:02.811Z,157.30
2022-12-09T03:43:38.824Z,150.50
2022-12-09T03:46:08.982Z,155.57
2022-12-09T03:48:39.176Z,148.77
2022-12-09T03:51:19.890Z,135.27
2022-12-09T03:54:22.102Z,128.73
2022-12-09T03:56:55.485Z,110.13
2022-12-09T03:59:28.208Z,108.45
2022-12-09T04:01:59.060Z,133.35
2022-12-09T04:04:30.623Z,138.38
2022-12-09T04:07:01.290Z,119.60
2022-12-09T04:12:02.324Z,132.20
2022-12-09T04:14:36.439Z,136.90
2022-12-09T04:17:06.881Z,130.38
2022-12-09T04:19:37.532Z,134.23
2022-12-09T04:22:07.773Z,131.38
2022-12-09T04:24:37.773Z,118.07
2022-12-09T04:27:07.941Z,118.63
2022-12-09T04:29:38.314Z,115.68
2022-12-09T04:32:08.836Z,117.72
2022-12-09T04:37:10.008Z,138.50
2022-12-09T04:39:43.699Z,125.47
2022-12-09T04:42:15.114Z,135.10
2022-12-09T04:44:45.342Z,124.85
2022-12-09T04:47:16.255Z,107.65
2022-12-09T04:49:47.307Z,99.95
2022-12-09T04:52:20.981Z,123.35
2022-12-09T04:54:52.771Z,116.72
2022-12-09T04:57:24.133Z,115.35
2022-12-09T04:59:54.575Z,116.47
2022-12-09T05:02:25.259Z,120.43
2022-12-09T05:04:55.407Z,121.70
2022-12-09T05:07:26.879Z,115.85
2022-12-09T05:09:57.264Z,114.53
2022-12-09T05:14:57.919Z,103.32
2022-12-09T05:17:28.275Z,90.63
2022-12-09T05:22:29.330Z,102.35
2022-12-09T06:02:15.164Z,96.88
2022-12-09T06:09:46.505Z,84.55
2022-12-09T06:12:17.657Z,77.93
2022-12-09T06:14:47.697Z,80.03
2022-12-09T06:17:18.712Z,78.43
2022-12-09T06:19:49.081Z,86.88
2022-12-09T06:22:19.649Z,88.63
2022-12-09T06:24:55.509Z,103.88
2022-12-09T06:31:10.202Z,97.88
2022-12-09T06:34:00.459Z,88.82
2022-12-09T06:36:33.329Z,87.70
2022-12-09T06:39:10.531Z,73.75
2022-12-09T06:41:45.174Z,62.92
2022-12-09T06:44:23.229Z,70.60
2022-12-09T06:54:44.989Z,60.90
2022-12-09T07:08:20.733Z,52.03
2022-12-09T07:10:56.555Z,46.15
2022-12-09T07:13:27.104Z,47.55
2022-12-09T07:15:57.628Z,50.95
2022-12-09T07:18:27.807Z,50.25
2022-12-09T07:20:58.694Z,42.03
2022-12-09T07:33:28.715Z,52.45
2022-12-09T07:36:01.124Z,49.33
2022-12-09T07:38:31.636Z,52.38
2022-12-09T07:41:08.259Z,50.38
2022-12-09T07:43:39.798Z,47.97
2022-12-09T07:46:10.790Z,44.00
2022-12-09T07:48:41.743Z,36.60
2022-12-09T07:51:14.589Z,41.42
2022-12-09T07:53:46.029Z,34.38
2022-12-09T07:56:17.897Z,40.05
2022-12-09T07:58:50.640Z,40.13
2022-12-09T08:01:25.306Z,38.00
2022-12-09T08:03:56.829Z,39.78
2022-12-09T08:06:29.659Z,32.97
2022-12-09T08:09:03.338Z,39.42
2022-12-09T08:11:34.998Z,29.08
2022-12-09T08:14:12.277Z,27.10
2022-12-09T08:16:44.721Z,33.03
2022-12-09T08:19:17.029Z,35.28
2022-12-09T08:21:51.451Z,40.03
2022-12-09T08:24:24.808Z,23.00
2022-12-09T10:07:53.840Z,24.40
2022-12-09T10:10:55.584Z,31.95
2022-12-09T11:04:48.013Z,41.70
2022-12-09T11:07:25.237Z,42.25
2022-12-09T11:10:19.902Z,40.78
2022-12-09T11:12:55.514Z,44.85
2022-12-09T11:15:32.364Z,40.83
2022-12-09T11:18:08.846Z,74.90
2022-12-09T11:20:40.129Z,41.47
2022-12-09T11:23:20.418Z,44.40
2022-12-09T11:26:05.340Z,42.88
2022-12-09T11:28:38.511Z,37.92
2022-12-09T11:31:29.592Z,48.03
2022-12-09T11:34:05.375Z,41.08
2022-12-09T11:36:42.324Z,44.33
2022-12-09T11:39:30.247Z,44.03
2022-12-09T11:42:21.186Z,54.33
2022-12-09T11:45:02.300Z,39.72
2022-12-09T11:48:24.155Z,40.63
2022-12-09T11:50:44.189Z,57.97
2022-12-09T11:53:36.879Z,45.35
2022-12-09T11:56:19.543Z,47.70
2022-12-09T11:59:15.124Z,46.28
2022-12-09T12:02:08.617Z,44.90
2022-12-09T12:04:51.034Z,57.08
2022-12-09T12:07:42.775Z,55.65
2022-12-09T12:10:39.439Z,55.92
2022-12-09T12:13:27.204Z,63.10
2022-12-09T12:16:14.384Z,64.32
2022-12-09T12:19:13.756Z,60.25
2022-12-09T12:22:12.416Z,70.30
2022-12-09T12:25:18.053Z,85.90
2022-12-09T12:28:17.263Z,72.90
2022-12-09T12:31:23.903Z,77.60
2022-12-09T12:34:27.156Z,79.75
2022-12-09T12:37:24.647Z,65.93
2022-12-09T12:40:26.934Z,63.75
2022-12-09T12:43:23.889Z,55.10
2022-12-09T12:46:14.298Z,62.38
2022-12-09T12:49:14.883Z,62.85
2022-12-09T12:52:39.378Z,60.70
2022-12-09T12:55:24.901Z,58.63
2022-12-09T12:58:25.641Z,59.08
2022-12-09T13:04:15.853Z,52.90
2022-12-09T13:07:05.906Z,54.75
2022-12-09T13:09:46.509Z,53.88
2022-12-09T13:14:56.297Z,64.78
2022-12-09T13:17:32.148Z,65.75
2022-12-09T13:20:05.527Z,59.85
2022-12-09T13:22:56.994Z,67.32
2022-12-09T13:25:56.653Z,65.13
2022-12-09T13:28:41.656Z,71.45
2022-12-09T13:31:13.720Z,69.60
2022-12-09T13:34:10.068Z,68.38
2022-12-09T13:36:44.647Z,69.32
2022-12-09T13:39:35.121Z,71.63
2022-12-09T13:42:17.318Z,76.00
2022-12-09T13:44:48.505Z,78.43
2022-12-09T13:47:38.226Z,89.18
2022-12-09T13:50:23.811Z,79.80
2022-12-09T13:52:59.050Z,73.10
2022-12-09T13:55:35.031Z,82.03
2022-12-09T13:58:32.675Z,77.30
2022-12-09T14:01:31.471Z,71.70
2022-12-09T14:04:13.992Z,71.68
2022-12-09T14:07:10.039Z,73.47
2022-12-09T14:09:53.095Z,77.55
2022-12-09T14:13:01.848Z,83.28
2022-12-09T14:15:38.408Z,78.65
2022-12-09T14:18:30.155Z,81.88
2022-12-09T14:21:27.229Z,89.32
2022-12-09T14:24:30.735Z,104.55
2022-12-09T14:27:18.261Z,93.15
2022-12-09T14:29:56.125Z,88.97
2022-12-09T14:32:38.899Z,116.00
2022-12-09T14:35:24.996Z,87.45
2022-12-09T14:38:24.050Z,85.60
2022-12-09T14:41:08.146Z,94.45
2022-12-09T14:44:02.577Z,83.57
2022-12-09T14:46:39.919Z,103.20
2022-12-09T14:49:19.570Z,92.80
2022-12-09T14:51:53.100Z,93.35
2022-12-09T14:54:30.161Z,92.93
2022-12-09T14:57:02.642Z,81.85
2022-12-09T14:59:34.411Z,108.10
2022-12-09T15:02:25.451Z,107.47
2022-12-09T15:04:56.721Z,104.40
2022-12-09T15:07:30.280Z,95.43
2022-12-09T15:10:07.512Z,88.75
2022-12-09T15:12:43.507Z,89.80
2022-12-09T15:15:27.960Z,88.35
2022-12-09T15:18:19.474Z,72.97
2022-12-09T15:21:03.062Z,75.40
2022-12-09T15:23:36.324Z,79.70
2022-12-09T15:26:31.596Z,72.55
2022-12-09T15:29:02.716Z,74.60
2022-12-09T15:31:34.586Z,81.03
2022-12-09T15:34:19.358Z,78.68
2022-12-09T15:36:57.202Z,90.50
2022-12-09T15:39:48.741Z,85.35
2022-12-09T15:42:27.752Z,76.65
2022-12-09T15:45:11.603Z,80.57
2022-12-09T15:48:07.541Z,115.40
2022-12-09T15:50:58.499Z,77.50
2022-12-09T15:53:40.912Z,85.30
2022-12-09T15:56:20.026Z,83.05
2022-12-09T15:58:54.620Z,75.00
2022-12-09T16:01:29.153Z,83.75
2022-12-09T16:04:02.311Z,99.95
2022-12-09T16:06:39.941Z,75.88
2022-12-09T16:09:20.848Z,81.18
2022-12-09T16:11:54.077Z,69.70
2022-12-09T16:14:26.561Z,92.82
2022-12-09T16:17:03.072Z,75.32
2022-12-09T16:19:39.962Z,85.22
2022-12-09T16:22:23.927Z,90.47
2022-12-09T16:25:14.592Z,97.45
2022-12-09T16:27:50.924Z,80.45
2022-12-09T16:30:25.327Z,89.07
2022-12-09T16:32:57.301Z,95.60
2022-12-09T16:35:31.011Z,86.68
2022-12-09T16:38:21.125Z,87.45
2022-12-09T16:41:08.713Z,86.78
2022-12-09T16:43:43.867Z,94.30
2022-12-09T16:46:39.294Z,75.25
2022-12-09T16:49:10.095Z,80.47
2022-12-09T16:51:40.981Z,76.88
2022-12-09T16:54:20.464Z,72.10
2022-12-09T16:56:53.913Z,75.55
2022-12-09T16:59:23.939Z,81.35
2022-12-09T17:01:53.982Z,79.85
2022-12-09T17:04:30.335Z,90.07
2022-12-09T17:07:00.516Z,81.97
2022-12-09T17:09:30.447Z,89.95
2022-12-09T17:12:00.427Z,104.65
2022-12-09T17:14:30.847Z,95.43
2022-12-09T17:17:00.890Z,92.68
2022-12-09T17:19:31.296Z,90.10
2022-12-09T17:22:01.433Z,117.78
2022-12-09T17:24:31.634Z,102.05
2022-12-09T17:27:01.789Z,106.85
2022-12-09T17:29:32.627Z,125.97
2022-12-09T17:32:02.683Z,112.55
2022-12-09T17:34:32.844Z,117.25
2022-12-09T17:37:02.853Z,118.32
2022-12-09T17:39:32.837Z,119.57
2022-12-09T17:42:03.144Z,130.30
2022-12-09T17:44:33.139Z,111.43
2022-12-09T17:47:03.139Z,115.18
2022-12-09T17:49:33.731Z,115.55
2022-12-09T17:54:33.102Z,123.15
2022-12-09T17:57:03.050Z,112.00
2022-12-09T17:59:33.871Z,123.32
2022-12-09T18:02:06.338Z,104.40
2022-12-09T18:04:39.533Z,112.05
2022-12-09T18:07:10.228Z,110.75
2022-12-09T18:12:10.336Z,97.43
2022-12-09T18:14:40.895Z,100.68
2022-12-09T18:17:12.241Z,110.40
2022-12-09T18:19:42.836Z,108.63
2022-12-09T18:22:13.225Z,127.97
2022-12-09T18:24:43.333Z,127.88
2022-12-09T18:27:13.349Z,121.75
2022-12-09T18:29:43.729Z,104.55
2022-12-09T18:32:15.556Z,132.50
2022-12-09T18:34:51.383Z,113.03
2022-12-09T18:37:32.588Z,118.70
2022-12-09T18:40:07.059Z,114.20
2022-12-09T18:42:38.439Z,97.63
2022-12-09T18:45:09.566Z,99.72
2022-12-09T18:47:40.342Z,93.43
2022-12-09T18:52:42.887Z,102.40
2022-12-09T18:55:13.445Z,103.78
2022-12-09T18:57:44.738Z,88.68
2022-12-09T19:00:18.381Z,92.60
2022-12-09T19:02:48.933Z,83.47
2022-12-09T19:07:48.814Z,94.28
2022-12-09T19:10:19.349Z,104.43
2022-12-09T19:12:53.737Z,81.70
2022-12-09T19:15:26.618Z,73.47
2022-12-09T19:17:56.837Z,89.80
2022-12-09T19:20:29.411Z,72.70
2022-12-09T19:22:59.423Z,61.60
2022-12-09T19:25:29.457Z,76.82
2022-12-09T19:27:59.363Z,62.55
2022-12-09T19:30:31.073Z,69.65
2022-12-09T19:33:02.137Z,68.55
2022-12-09T19:35:32.179Z,70.38
2022-12-09T19:38:02.467Z,62.90
2022-12-09T19:40:32.327Z,54.83
2022-12-09T19:43:02.351Z,57.83
2022-12-09T19:45:32.734Z,59.03
2022-12-09T19:48:02.594Z,64.50
2022-12-09T19:50:33.351Z,59.97
2022-12-09T19:55:32.423Z,58.30
2022-12-09T19:58:05.975Z,70.03
2022-12-09T20:00:41.607Z,64.45
2022-12-09T20:03:15.912Z,61.75
2022-12-09T20:05:58.018Z,64.70
2022-12-09T20:08:28.297Z,61.30
2022-12-09T20:11:02.216Z,58.38
2022-12-09T20:13:32.318Z,60.58
2022-12-09T20:16:10.030Z,71.45
2022-12-09T20:18:41.050Z,80.40
2022-12-09T20:21:13.329Z,62.17
2022-12-09T20:23:45.138Z,67.68
2022-12-09T20:26:19.437Z,65.57
2022-12-09T20:28:51.624Z,61.65
2022-12-09T20:31:24.903Z,62.33
2022-12-09T20:34:03.314Z,73.22
2022-12-09T20:36:35.281Z,59.13
2022-12-09T20:39:12.855Z,58.42
2022-12-09T20:41:44.007Z,62.45
2022-12-09T20:44:15.797Z,63.75
2022-12-09T20:46:49.744Z,64.10
2022-12-09T20:49:22.121Z,74.75
2022-12-09T20:51:52.179Z,74.05
2022-12-09T20:54:22.127Z,59.78
2022-12-09T20:56:52.134Z,78.90
2022-12-09T20:59:22.321Z,73.47
2022-12-09T21:01:52.337Z,74.18
2022-12-09T21:04:23.384Z,67.30
2022-12-09T21:06:56.485Z,78.50
2022-12-09T21:09:29.028Z,68.03
2022-12-09T21:12:02.452Z,71.82
2022-12-09T21:14:37.316Z,67.95
2022-12-09T21:17:08.372Z,63.92
2022-12-09T21:19:39.143Z,64.03
2022-12-09T21:24:38.917Z,61.55
2022-12-09T21:27:08.744Z,57.90
2022-12-09T21:29:39.489Z,67.93
2022-12-09T21:34:38.827Z,59.08
2022-12-09T21:37:08.897Z,59.47
2022-12-09T21:39:38.809Z,59.88
2022-12-09T21:42:08.842Z,66.43
2022-12-09T21:44:38.858Z,66.65
2022-12-09T21:47:08.677Z,65.80
2022-12-09T21:49:38.557Z,66.23
2022-12-09T21:52:08.708Z,64.45
2022-12-09T21:54:39.770Z,58.58
2022-12-09T21:57:09.885Z,63.45
2022-12-09T21:59:39.799Z,65.00
2022-12-09T22:02:10.078Z,63.72
2022-12-09T22:04:40.271Z,75.15
2022-12-09T22:07:10.178Z,67.53
2022-12-09T22:09:40.114Z,63.45
2022-12-09T22:12:10.446Z,73.55
2022-12-09T22:14:40.464Z,58.00
2022-12-09T22:17:10.358Z,57.72
2022-12-09T22:19:40.486Z,57.22
2022-12-09T22:22:10.514Z,54.55
2022-12-09T22:24:40.727Z,58.40
2022-12-09T22:27:10.847Z,60.20
2022-12-09T22:29:40.868Z,62.78
2022-12-09T22:32:10.795Z,58.00
2022-12-09T22:34:40.814Z,64.15
2022-12-09T22:37:35.270Z,58.88
2022-12-09T22:40:00.605Z,58.65
2022-12-09T22:42:32.103Z,70.43
2022-12-09T22:45:02.083Z,54.92
2022-12-09T22:47:31.942Z,62.90
2022-12-09T22:50:01.837Z,63.72
2022-12-09T22:52:33.017Z,64.90
2022-12-09T22:55:04.287Z,62.83
2022-12-09T22:57:36.425Z,53.70
2022-12-09T23:00:13.946Z,53.75
2022-12-09T23:02:44.617Z,56.20
2022-12-09T23:07:45.003Z,62.60
2022-12-09T23:10:15.625Z,54.28
2022-12-09T23:12:45.913Z,65.55
2022-12-09T23:15:16.271Z,65.25
2022-12-09T23:17:46.848Z,65.15
2022-12-09T23:20:17.222Z,81.00
2022-12-09T23:22:47.816Z,66.35
2022-12-09T23:25:18.308Z,80.18
2022-12-09T23:27:48.759Z,80.68
2022-12-09T23:30:19.413Z,81.43
2022-12-09T23:32:49.817Z,67.38
2022-12-09T23:35:20.459Z,65.00
2022-12-09T23:37:50.879Z,73.22
2022-12-09T23:40:22.326Z,59.97
2022-12-09T23:42:55.954Z,70.22
2022-12-09T23:45:26.909Z,71.65
2022-12-09T23:47:57.301Z,70.85
2022-12-09T23:50:28.274Z,69.50
2022-12-09T23:52:58.707Z,57.50
2022-12-09T23:55:29.104Z,73.95
2022-12-09T23:57:59.455Z,71.50
